<?xml version="1.0" encoding="UTF-8" standalone="no" ?>
<gpx xmlns="http://www.topografix.com/GPX/1/1" xmlns:xsi="http://www.w3.org/2001/XMLSchema-instance" xsi:schemaLocation="http://www.topografix.com/GPX/1/1 http://www.topografix.com/GPX/1/1/gpx.xsd" version="1.1" creator="VisuGPX - https://www.visugpx.com">
  <metadata>
    <name>boucles beaumont</name>
    <desc><![CDATA[boucles beaumont du périgord]]></desc>
  </metadata>
  <trk>
    <name><![CDATA[BBmt73]]></name>
    <trkseg>
      <trkpt lat="44.77998" lon="0.75128">
        <ele>82</ele>
        <time>2009-01-27T10:51:16Z</time>
      </trkpt>
      <trkpt lat="44.77988" lon="0.75158">
        <ele>82</ele>
        <time>2009-01-27T10:51:33Z</time>
      </trkpt>
      <trkpt lat="44.77978" lon="0.75183">
        <ele>83</ele>
        <time>2009-01-27T10:51:38Z</time>
      </trkpt>
      <trkpt lat="44.77963" lon="0.752">
        <ele>82</ele>
        <time>2009-01-27T10:51:42Z</time>
      </trkpt>
      <trkpt lat="44.77948" lon="0.75218">
        <ele>81</ele>
        <time>2009-01-27T10:51:45Z</time>
      </trkpt>
      <trkpt lat="44.77933" lon="0.75233">
        <ele>81</ele>
        <time>2009-01-27T10:51:48Z</time>
      </trkpt>
      <trkpt lat="44.77915" lon="0.75253">
        <ele>80</ele>
        <time>2009-01-27T10:51:51Z</time>
      </trkpt>
      <trkpt lat="44.77898" lon="0.75273">
        <ele>80</ele>
        <time>2009-01-27T10:51:54Z</time>
      </trkpt>
      <trkpt lat="44.77883" lon="0.7529">
        <ele>82</ele>
        <time>2009-01-27T10:51:57Z</time>
      </trkpt>
      <trkpt lat="44.77868" lon="0.7531">
        <ele>80</ele>
        <time>2009-01-27T10:52:00Z</time>
      </trkpt>
      <trkpt lat="44.77853" lon="0.75333">
        <ele>79</ele>
        <time>2009-01-27T10:52:03Z</time>
      </trkpt>
      <trkpt lat="44.77835" lon="0.75355">
        <ele>79</ele>
        <time>2009-01-27T10:52:06Z</time>
      </trkpt>
      <trkpt lat="44.77815" lon="0.75375">
        <ele>78</ele>
        <time>2009-01-27T10:52:09Z</time>
      </trkpt>
      <trkpt lat="44.77793" lon="0.75393">
        <ele>77</ele>
        <time>2009-01-27T10:52:12Z</time>
      </trkpt>
      <trkpt lat="44.7777" lon="0.75408">
        <ele>76</ele>
        <time>2009-01-27T10:52:15Z</time>
      </trkpt>
      <trkpt lat="44.77748" lon="0.7542">
        <ele>75</ele>
        <time>2009-01-27T10:52:18Z</time>
      </trkpt>
      <trkpt lat="44.77735" lon="0.7544">
        <ele>76</ele>
        <time>2009-01-27T10:52:32Z</time>
      </trkpt>
      <trkpt lat="44.77728" lon="0.75468">
        <ele>77</ele>
        <time>2009-01-27T10:52:36Z</time>
      </trkpt>
      <trkpt lat="44.77723" lon="0.75495">
        <ele>77</ele>
        <time>2009-01-27T10:52:39Z</time>
      </trkpt>
      <trkpt lat="44.7772" lon="0.75528">
        <ele>76</ele>
        <time>2009-01-27T10:52:42Z</time>
      </trkpt>
      <trkpt lat="44.77718" lon="0.75555">
        <ele>75</ele>
        <time>2009-01-27T10:52:45Z</time>
      </trkpt>
    </trkseg>
  </trk>
</gpx>